Terminal Aerodrome Forecast
Issued by NWS

Home | Current Version | Previous Version | Text Only | Print | Product List | Glossary On
Versions: 1 2 3 4 5 6 7 8 9 10 11 12 13 14 15 16 17
000
FTUS41 KALY 302305 AAA
TAFPSF
TAF AMD
KPSF 302305Z 3023/3118 30008KT P6SM SCT045
     FM310000 23004KT P6SM SCT045
     FM310700 VRB03KT 2SM BR SCT008
     FM311100 28009G15KT P6SM SCT025 BKN045=

USA.gov is the U.S. government's official web portal to all federal, state and local government web resources and services.